Time;durP1;ratioP1;P1;durP2;ratioP2;P2;SDS_P1;SDS_P2;PMS_P1;PMS_P2;Temp;Humidity;BMP_temperature;BMP_pressure;BME280_temperature;BME280_humidity;BME280_pressure;Samples;Min_cycle;Max_cycle;Signal;HPM_P1;HPM_P2
2021/11/08 00:00:49;;;;;;;13.40;10.30;;;;;;;18.98;53.96;100936.33;115344;1198;58971;-83
2021/11/08 00:04:37;;;;;;;15.70;10.80;;;;;;;18.98;53.86;100939.39;115196;1198;71138;-84
2021/11/08 00:07:55;;;;;;;;;;;;;;;;;;;;;
2021/11/08 00:10:50;;;;;;;16.40;10.50;;;;;;;18.96;53.88;100941.66;114973;1202;58931;-83
2021/11/08 00:13:54;;;;;;;15.90;10.80;;;;;;;18.96;54.02;100946.79;115100;1202;61145;-84
2021/11/08 00:18:04;;;;;;;13.80;10.40;;;;;;;18.95;54.09;100939.01;115001;1202;72497;-84
2021/11/08 00:23:10;;;;;;;15.10;10.60;;;;;;;18.94;53.92;100931.92;115490;1196;59398;-81
2021/11/08 00:26:17;;;;;;;15.50;11.70;;;;;;;18.94;53.92;100931.38;115474;1196;60955;-83
2021/11/08 00:29:34;;;;;;;;;;;;;;;;;;;;;
2021/11/08 00:32:34;;;;;;;;;;;;;;;;;;;;;
2021/11/08 00:35:23;;;;;;;15.60;11.00;;;;;;;18.93;54.13;100924.67;115422;1197;60152;-83
2021/11/08 00:38:50;;;;;;;14.20;10.70;;;;;;;18.93;54.06;100920.55;115520;1196;58813;-83
2021/11/08 00:41:31;;;;;;;14.20;10.20;;;;;;;18.93;53.98;100907.36;115009;1200;71202;-83
2021/11/08 00:44:17;;;;;;;15.10;9.90;;;;;;;18.97;54.00;100903.94;115209;1200;74472;-83
2021/11/08 00:47:07;;;;;;;;;;;;;;;;;;;;;
2021/11/08 00:59:52;;;;;;;15.70;10.90;;;;;;;19.12;54.17;100890.73;114679;1196;59678;-81
2021/11/08 01:02:34;;;;;;;14.20;11.00;;;;;;;19.12;54.02;100894.27;115347;1197;59986;-84
2021/11/08 01:05:15;;;;;;;16.70;11.40;;;;;;;19.13;53.94;100891.74;115312;1198;72144;-84
2021/11/08 01:08:01;;;;;;;16.20;10.80;;;;;;;19.12;54.00;100897.82;114878;1202;74239;-82
2021/11/08 01:10:27;;;;;;;14.80;10.90;;;;;;;19.12;53.92;100893.58;114807;1203;58907;-82
2021/11/08 01:13:32;;;;;;;;;;;;;;;;;;;;;
2021/11/08 01:16:53;;;;;;;15.10;11.30;;;;;;;19.10;53.88;100888.66;115129;1201;73304;-82
2021/11/08 01:19:51;;;;;;;13.20;10.00;;;;;;;19.08;53.89;100895.41;114527;1206;74293;-81
2021/11/08 01:23:03;;;;;;;14.00;11.00;;;;;;;19.07;53.93;100889.23;114601;1206;59851;-81
2021/11/08 01:25:43;;;;;;;14.80;11.00;;;;;;;19.05;53.88;100886.66;114579;1209;59801;-82
2021/11/08 01:28:30;;;;;;;18.20;11.20;;;;;;;19.04;53.77;100885.61;114586;1206;73383;-82
2021/11/08 01:31:08;;;;;;;16.30;10.60;;;;;;;19.03;53.74;100878.92;114576;1206;75137;-81
2021/11/08 01:34:21;;;;;;;15.10;10.80;;;;;;;19.02;53.96;100872.92;114578;1207;59891;-82
2021/11/08 01:36:52;;;;;;;15.00;11.00;;;;;;;19.01;53.89;100873.74;114433;1209;60801;-82
2021/11/08 01:39:21;;;;;;;14.90;11.10;;;;;;;19.01;53.83;100870.18;114445;1210;72108;-81
2021/11/08 01:41:47;;;;;;;14.30;11.10;;;;;;;19.00;53.87;100868.10;114438;1211;75286;-81
2021/11/08 01:44:23;;;;;;;16.70;11.30;;;;;;;18.99;53.95;100864.40;114451;1209;58864;-81
2021/11/08 01:47:05;;;;;;;;;;;;;;;;;;;;;
2021/11/08 01:49:50;;;;;;;14.30;10.50;;;;;;;18.98;53.76;100851.06;114573;1208;72026;-82
2021/11/08 01:52:19;;;;;;;16.30;11.40;;;;;;;18.97;53.83;100853.80;114575;1207;74268;-82
2021/11/08 01:55:22;;;;;;;;;;;;;;;;;;;;;
2021/11/08 01:58:32;;;;;;;;;;;;;;;;;;;;;
2021/11/08 02:01:25;;;;;;;13.50;11.00;;;;;;;18.94;53.92;100864.67;114891;1203;73561;-82
2021/11/08 02:04:37;;;;;;;15.20;10.90;;;;;;;18.93;53.93;100861.15;114590;1206;73029;-83
2021/11/08 02:08:48;;;;;;;15.20;10.70;;;;;;;18.92;53.94;100856.75;114599;1206;59062;-82
2021/11/08 02:12:11;;;;;;;16.70;11.40;;;;;;;18.91;53.96;100849.70;114373;1211;58975;-82
2021/11/08 02:15:11;;;;;;;;;;;;;;;;;;;;;
2021/11/08 02:28:03;;;;;;;15.10;11.80;;;;;;;18.87;54.04;100842.95;115062;1196;72251;-81
2021/11/08 02:31:17;;;;;;;15.10;11.20;;;;;;;18.87;54.18;100842.59;115340;1197;65673;-81
2021/11/08 02:35:08;;;;;;;14.30;11.00;;;;;;;18.87;53.98;100839.92;115232;1201;58937;-81
2021/11/08 02:37:56;;;;;;;15.10;10.80;;;;;;;18.86;54.12;100840.00;114888;1196;60199;-81
2021/11/08 02:40:27;;;;;;;16.10;11.50;;;;;;;18.87;54.13;100821.41;115391;1196;73506;-81
2021/11/08 02:43:40;;;;;;;;;;;;;;;;;;;;;
2021/11/08 02:47:06;;;;;;;;;;;;;;;;;;;;;
2021/11/08 02:49:45;;;;;;;16.20;11.80;;;;;;;18.86;54.11;100836.96;115201;1200;61389;-82
2021/11/08 02:52:43;;;;;;;;;;;;;;;;;;;;;
2021/11/08 02:55:23;;;;;;;;;;;;;;;;;;;;;
2021/11/08 02:58:32;;;;;;;16.30;11.20;;;;;;;18.89;54.12;100824.34;115221;1199;60716;-84
2021/11/08 03:01:22;;;;;;;15.80;10.90;;;;;;;18.94;54.40;100809.73;115159;1199;61087;-84
2021/11/08 03:03:53;;;;;;;14.60;11.50;;;;;;;18.98;54.40;100797.57;115165;1200;72475;-83
2021/11/08 03:06:27;;;;;;;17.60;11.60;;;;;;;19.02;54.50;100803.75;115189;1192;75406;-83
2021/11/08 03:08:56;;;;;;;14.90;11.20;;;;;;;19.04;54.17;100814.30;115188;1200;60149;-84
2021/11/08 03:11:25;;;;;;;15.40;11.60;;;;;;;19.07;54.24;100826.81;115202;1199;60047;-84
2021/11/08 03:14:04;;;;;;;14.70;12.10;;;;;;;19.08;54.07;100839.58;115163;1199;72250;-84
2021/11/08 03:23:07;;;;;;;;;;;;;;;;;;;;;
2021/11/08 03:26:43;;;;;;;15.20;11.70;;;;;;;19.06;54.03;100835.21;114718;1205;72333;-84
2021/11/08 03:28:54;;;;;;;16.60;10.80;;;;;;;19.05;53.93;100829.78;114616;1206;74221;-84
2021/11/08 03:32:14;;;;;;;16.00;11.70;;;;;;;19.04;53.97;100840.73;114751;1205;59983;-85
2021/11/08 03:34:46;;;;;;;14.60;10.90;;;;;;;19.02;53.90;100823.52;114767;1205;60904;-84
2021/11/08 03:37:20;;;;;;;14.40;11.10;;;;;;;19.01;53.80;100833.55;114635;1205;73720;-84
2021/11/08 03:39:52;;;;;;;15.70;11.30;;;;;;;19.00;53.92;100820.98;114684;1205;75373;-83
2021/11/08 03:43:00;;;;;;;14.10;11.40;;;;;;;18.99;53.84;100808.92;114646;1205;59508;-84
2021/11/08 03:59:17;;;;;;;13.50;11.20;;;;;;;18.90;53.81;100804.44;114777;1196;60153;-81
2021/11/08 04:01:43;;;;;;;14.70;11.10;;;;;;;18.90;53.80;100801.95;115515;1197;72066;-81
2021/11/08 04:04:19;;;;;;;15.80;11.90;;;;;;;18.89;53.83;100795.42;115323;1198;58471;-81
2021/11/08 04:07:16;;;;;;;15.50;11.50;;;;;;;18.88;53.75;100796.88;115320;1197;60586;-84
2021/11/08 04:10:06;;;;;;;14.40;11.20;;;;;;;18.88;53.79;100785.15;115179;1201;59199;-83
2021/11/08 04:13:04;;;;;;;14.50;11.00;;;;;;;18.87;54.03;100784.45;115216;1201;73532;-83
2021/11/08 04:15:31;;;;;;;15.50;11.70;;;;;;;18.87;53.88;100782.16;115213;1201;75505;-83
2021/11/08 04:17:59;;;;;;;13.30;10.70;;;;;;;18.86;53.94;100777.39;115146;1201;60907;-84
2021/11/08 04:20:39;;;;;;;14.70;11.30;;;;;;;18.87;53.81;100769.86;115183;1201;61102;-83
2021/11/08 04:23:36;;;;;;;13.70;11.00;;;;;;;18.86;53.94;100768.66;115435;1196;73262;-81
2021/11/08 04:29:33;;;;;;;15.90;11.60;;;;;;;18.85;53.93;100784.61;115511;1197;58816;-83
2021/11/08 04:32:48;;;;;;;;;;;;;;;;;;;;;
2021/11/08 04:58:45;;;;;;;16.40;11.60;;;;;;;18.81;54.09;100808.02;114840;1199;59130;-83
2021/11/08 05:32:50;;;;;;;22.70;16.80;;;;;;;18.75;53.61;100802.16;115144;1198;59376;-83
2021/11/08 05:36:01;;;;;;;;;;;;;;;;;;;;;
2021/11/08 05:39:01;;;;;;;;;;;;;;;;;;;;;
2021/11/08 05:42:06;;;;;;;25.20;18.40;;;;;;;18.79;53.09;100802.61;115059;1198;74372;-83
2021/11/08 05:44:33;;;;;;;27.70;19.60;;;;;;;18.81;52.82;100811.45;115283;1197;60253;-82
2021/11/08 05:47:08;;;;;;;24.40;18.30;;;;;;;18.82;52.47;100805.63;115342;1196;60975;-82
2021/11/08 05:49:36;;;;;;;27.00;19.00;;;;;;;18.85;52.10;100829.74;115334;1198;73676;-82
2021/11/08 05:52:17;;;;;;;26.80;19.10;;;;;;;18.87;51.90;100829.59;115196;1198;74317;-82
2021/11/08 05:54:56;;;;;;;26.40;18.10;;;;;;;18.90;51.59;100814.13;115313;1196;59796;-82
2021/11/08 06:49:56;;;;;;;23.20;15.30;;;;;;;19.49;49.75;100796.84;115076;1198;72286;-81
2021/11/08 06:53:00;;;;;;;23.80;15.60;;;;;;;19.51;49.65;100795.66;114887;1200;75802;-83
2021/11/08 06:55:45;;;;;;;33.50;18.80;;;;;;;19.51;49.65;100797.62;114653;1201;58999;-82
2021/11/08 06:58:21;;;;;;;37.10;23.30;;;;;;;19.47;49.62;100812.66;114802;1201;60077;-83
2021/11/08 07:00:50;;;;;;;30.50;20.70;;;;;;;19.41;49.49;100819.48;114901;1200;73461;-83
2021/11/08 07:03:28;;;;;;;29.60;20.00;;;;;;;19.38;49.57;100827.70;114806;1201;59065;-83
2021/11/08 07:06:13;;;;;;;30.70;19.70;;;;;;;19.37;49.54;100822.23;114814;1201;60528;-84
2021/11/08 07:08:39;;;;;;;35.20;19.50;;;;;;;19.37;49.63;100818.67;114779;1201;60191;-83
2021/11/08 07:11:13;;;;;;;32.50;18.80;;;;;;;19.38;49.51;100814.30;114734;1201;72400;-83
2021/11/08 07:13:39;;;;;;;28.10;19.40;;;;;;;19.39;49.54;100814.80;115018;1201;76148;-83
2021/11/08 07:16:07;;;;;;;36.10;20.10;;;;;;;19.40;49.61;100816.17;114939;1201;59264;-83
2021/11/08 07:18:50;;;;;;;30.30;20.30;;;;;;;19.41;49.50;100814.68;114999;1193;59948;-83
2021/11/08 07:22:06;;;;;;;32.00;19.40;;;;;;;19.39;49.57;100800.85;114965;1201;72333;-83
2021/11/08 07:25:03;;;;;;;35.50;19.90;;;;;;;19.40;49.39;100805.23;114997;1201;74520;-82
2021/11/08 07:27:47;;;;;;;29.50;18.50;;;;;;;19.41;49.43;100831.23;114671;1197;59772;-81
2021/11/08 07:30:35;;;;;;;24.90;19.10;;;;;;;19.43;49.29;100842.54;114788;1201;60201;-81
2021/11/08 07:33:01;;;;;;;30.70;19.30;;;;;;;19.46;49.38;100842.40;114931;1201;72061;-81
2021/11/08 07:35:26;;;;;;;32.80;19.10;;;;;;;19.47;49.28;100843.95;114940;1201;59143;-81
2021/11/08 07:37:52;;;;;;;25.10;18.00;;;;;;;19.47;49.13;100840.19;114997;1201;59058;-80
2021/11/08 07:40:40;;;;;;;31.90;19.60;;;;;;;19.47;49.18;100830.17;115062;1201;59949;-82
2021/11/08 07:43:29;;;;;;;26.50;17.70;;;;;;;19.47;49.16;100842.15;114873;1200;72421;-83
2021/11/08 07:45:58;;;;;;;29.60;19.50;;;;;;;19.48;49.14;100843.51;114983;1200;75320;-82
2021/11/08 07:48:29;;;;;;;26.80;18.40;;;;;;;19.49;49.04;100835.95;115031;1201;59954;-83
2021/11/08 07:50:55;;;;;;;26.50;18.50;;;;;;;19.51;49.20;100838.48;114828;1201;60018;-83
2021/11/08 07:53:26;;;;;;;28.50;19.90;;;;;;;19.53;49.09;100848.00;114812;1201;73045;-84
2021/11/08 07:55:52;;;;;;;;;;;;;;;19.53;49.10;100865.45;114825;1201;74687;-83
2021/11/08 07:58:23;;;;;;;30.20;20.60;;;;;;;19.46;49.01;100870.05;115004;1201;59624;-82
2021/11/08 08:00:52;;;;;;;29.60;20.40;;;;;;;19.43;49.05;100872.38;114956;1200;60119;-82
2021/11/08 08:03:20;;;;;;;36.30;21.20;;;;;;;19.39;49.09;100874.73;114760;1201;59147;-81
2021/11/08 08:05:49;;;;;;;35.00;20.20;;;;;;;19.38;49.09;100856.24;114943;1198;74106;-82
2021/11/08 08:08:41;;;;;;;41.30;19.30;;;;;;;19.40;49.20;100869.50;115122;1198;59938;-82
2021/11/08 08:11:37;;;;;;;36.90;18.50;;;;;;;19.43;49.27;100884.88;114892;1201;61166;-81
2021/11/08 08:14:13;;;;;;;30.10;18.70;;;;;;;19.47;49.30;100879.83;114565;1205;72364;-82
2021/11/08 08:16:39;;;;;;;36.10;17.50;;;;;;;19.51;49.52;100893.83;114563;1205;74251;-82
2021/11/08 08:19:30;;;;;;;36.30;17.50;;;;;;;19.54;49.44;100872.03;114519;1205;60958;-82
2021/11/08 08:21:56;;;;;;;24.90;17.20;;;;;;;19.58;49.53;100885.01;114682;1205;59215;-82
2021/11/08 08:24:37;;;;;;;32.50;16.80;;;;;;;19.60;49.67;100869.33;114501;1206;59141;-82
2021/11/08 08:27:13;;;;;;;28.60;16.90;;;;;;;19.63;49.80;100866.29;114625;1205;75155;-82
2021/11/08 08:30:08;;;;;;;26.90;17.50;;;;;;;19.65;49.90;100857.59;114592;1205;59499;-82
2021/11/08 08:32:45;;;;;;;28.30;18.50;;;;;;;19.67;49.97;100870.48;114610;1204;61424;-82
2021/11/08 08:35:17;;;;;;;27.30;17.00;;;;;;;19.69;49.99;100859.85;114519;1205;72177;-82
2021/11/08 08:37:47;;;;;;;30.80;17.10;;;;;;;19.71;50.03;100862.92;114661;1205;75257;-82
2021/11/08 08:40:13;;;;;;;31.60;17.30;;;;;;;19.74;50.05;100873.08;114678;1204;61028;-82
2021/11/08 08:42:42;;;;;;;25.50;17.90;;;;;;;19.76;50.03;100868.85;114571;1205;60213;-82
2021/11/08 08:45:11;;;;;;;23.90;16.90;;;;;;;19.78;50.10;100867.27;114562;1205;72272;-82
2021/11/08 08:47:37;;;;;;;27.90;17.60;;;;;;;19.80;50.12;100862.36;114566;1202;74311;-82
2021/11/08 08:50:16;;;;;;;22.50;17.20;;;;;;;19.81;50.13;100848.20;114832;1202;58802;-82
2021/11/08 08:52:45;;;;;;;22.50;16.20;;;;;;;19.82;49.87;100854.90;114790;1202;59917;-84
2021/11/08 08:55:10;;;;;;;31.90;17.90;;;;;;;19.82;49.94;100862.44;114717;1202;72525;-83
2021/11/08 08:57:36;;;;;;;33.00;19.50;;;;;;;19.78;49.95;100850.83;114594;1201;59299;-83
2021/11/08 09:00:14;;;;;;;41.40;20.40;;;;;;;19.76;49.89;100857.05;114596;1203;59021;-83
2021/11/08 09:03:07;;;;;;;29.70;18.60;;;;;;;19.69;49.76;100844.07;114774;1202;60102;-84
2021/11/08 09:05:45;;;;;;;26.10;18.40;;;;;;;19.65;49.59;100849.56;114349;1205;72284;-83
2021/11/08 09:08:42;;;;;;;;;;;;;;;;;;;;;
2021/11/08 09:11:40;;;;;;;27.20;16.30;;;;;;;19.64;49.63;100845.55;114461;1205;60277;-85
2021/11/08 09:14:06;;;;;;;29.30;18.50;;;;;;;19.65;49.56;100846.70;114228;1208;59900;-83
2021/11/08 09:16:44;;;;;;;26.50;18.10;;;;;;;19.67;49.42;100836.38;114378;1207;73779;-83
2021/11/08 09:19:21;;;;;;;29.10;17.90;;;;;;;19.68;49.38;100822.05;114315;1208;75684;-83
2021/11/08 09:22:03;;;;;;;30.80;18.70;;;;;;;19.69;49.28;100824.98;114347;1208;59752;-82
2021/11/08 09:25:20;;;;;;;24.40;16.40;;;;;;;19.71;49.26;100816.34;114291;1208;59964;-83
2021/11/08 09:28:01;;;;;;;31.60;16.30;;;;;;;19.73;49.12;100804.76;114119;1210;72212;-83
2021/11/08 09:30:30;;;;;;;26.90;16.90;;;;;;;19.74;49.20;100801.63;114158;1210;73656;-83
2021/11/08 09:33:02;;;;;;;31.70;17.60;;;;;;;19.75;48.96;100800.50;114093;1211;59774;-84
2021/11/08 09:35:44;;;;;;;25.90;16.60;;;;;;;19.75;48.91;100786.58;114112;1210;61343;-83
2021/11/08 09:38:10;;;;;;;27.60;17.40;;;;;;;19.75;48.92;100776.77;114080;1211;73261;-83
2021/11/08 09:41:14;;;;;;;29.80;17.60;;;;;;;19.75;48.90;100755.16;114129;1211;74371;-83
2021/11/08 09:43:52;;;;;;;24.00;18.30;;;;;;;19.74;48.73;100756.27;114197;1211;59946;-83
2021/11/08 09:46:18;;;;;;;23.60;16.60;;;;;;;19.74;48.80;100769.31;114171;1210;60137;-83
2021/11/08 09:49:16;;;;;;;;;;;;;;;;;;;;;
2021/11/08 09:52:05;;;;;;;;;;;;;;;;;;;;;
2021/11/08 09:54:33;;;;;;;28.60;17.80;;;;;;;19.74;48.50;100777.52;113979;1211;61160;-83
2021/11/08 09:57:23;;;;;;;;;;;;;;;;;;;;;
2021/11/08 10:00:28;;;;;;;30.30;17.80;;;;;;;19.70;48.57;100762.59;114186;1210;72434;-83
2021/11/08 10:02:59;;;;;;;31.10;17.60;;;;;;;19.70;48.49;100763.88;114116;1210;74506;-83
2021/11/08 10:05:43;;;;;;;30.80;18.70;;;;;;;19.70;48.68;100767.83;114092;1211;59019;-83
2021/11/08 10:08:10;;;;;;;37.60;20.40;;;;;;;19.69;48.73;100773.94;114056;1211;60086;-84
2021/11/08 10:10:36;;;;;;;27.10;17.80;;;;;;;19.68;48.75;100772.78;114005;1210;73470;-84
2021/11/08 10:13:16;;;;;;;34.70;18.10;;;;;;;19.68;48.81;100770.80;114073;1211;59148;-84
2021/11/08 10:15:44;;;;;;;24.90;16.50;;;;;;;19.70;48.75;100774.80;114204;1211;61181;-83
2021/11/08 10:18:10;;;;;;;28.60;17.30;;;;;;;19.71;48.75;100777.70;114197;1211;60827;-84
2021/11/08 10:20:58;;;;;;;30.80;17.80;;;;;;;19.74;48.71;100775.41;114202;1210;58911;-84
2021/11/08 10:23:25;;;;;;;27.40;17.40;;;;;;;19.76;48.77;100777.23;114094;1210;75256;-84
2021/11/08 10:25:56;;;;;;;37.00;18.90;;;;;;;19.79;48.73;100768.67;114186;1211;60247;-83
2021/11/08 10:28:24;;;;;;;29.80;18.00;;;;;;;19.80;48.67;100766.11;114233;1211;59215;-84
2021/11/08 10:31:04;;;;;;;24.90;16.90;;;;;;;19.81;48.82;100772.95;114201;1210;63731;-83
2021/11/08 10:33:42;;;;;;;27.60;17.50;;;;;;;19.85;48.70;100780.28;114261;1210;66675;-84
2021/11/08 10:36:28;;;;;;;38.10;19.40;;;;;;;19.87;48.73;100789.95;114306;1210;58846;-84
2021/11/08 10:38:59;;;;;;;33.40;18.20;;;;;;;19.87;48.80;100787.63;114220;1211;59233;-83
2021/11/08 10:41:31;;;;;;;26.50;17.70;;;;;;;19.87;48.87;100790.27;114218;1211;64822;-83
2021/11/08 10:44:01;;;;;;;29.30;17.20;;;;;;;19.89;48.76;100791.73;114275;1210;65824;-83
2021/11/08 10:46:40;;;;;;;29.00;17.50;;;;;;;19.92;48.91;100799.57;114243;1210;60772;-83
2021/11/08 10:49:20;;;;;;;28.70;18.50;;;;;;;19.94;48.89;100806.82;114203;1211;59275;-83
2021/11/08 10:52:06;;;;;;;;;;;;;;;19.94;48.90;100805.22;114042;1211;71804;-83
2021/11/08 10:54:54;;;;;;;27.90;16.00;;;;;;;19.88;48.97;100804.16;114138;1211;74372;-83
2021/11/08 10:57:32;;;;;;;31.00;19.70;;;;;;;19.87;48.93;100818.52;114047;1211;61094;-84
2021/11/08 11:00:00;;;;;;;30.50;18.00;;;;;;;19.87;49.12;100822.83;114121;1210;60216;-83
2021/11/08 11:02:33;;;;;;;36.00;18.30;;;;;;;19.86;49.11;100822.86;114032;1208;72411;-82
2021/11/08 11:05:04;;;;;;;28.50;16.90;;;;;;;19.86;49.17;100822.46;114150;1208;74493;-83
2021/11/08 11:07:42;;;;;;;24.50;16.60;;;;;;;19.87;49.26;100817.25;114089;1209;59854;-83
2021/11/08 11:10:11;;;;;;;34.60;20.50;;;;;;;19.88;49.20;100815.77;114349;1208;60118;-83
2021/11/08 11:12:49;;;;;;;31.10;19.70;;;;;;;19.88;49.19;100820.27;114170;1210;72366;-84
2021/11/08 11:15:43;;;;;;;33.90;19.50;;;;;;;19.89;49.30;100824.80;114209;1209;74512;-83
2021/11/08 11:18:44;;;;;;;30.10;18.30;;;;;;;19.91;49.23;100825.88;114165;1209;59096;-83
2021/11/08 11:21:19;;;;;;;27.00;17.60;;;;;;;19.94;49.25;100825.39;114083;1211;60069;-84
2021/11/08 11:24:40;;;;;;;;;;;;;;;;;;;;;
2021/11/08 11:27:46;;;;;;;26.80;18.20;;;;;;;19.97;49.18;100814.99;114243;1209;74880;-84
2021/11/08 11:30:43;;;;;;;27.00;18.30;;;;;;;20.00;49.19;100820.55;114027;1212;59738;-83
2021/11/08 11:33:29;;;;;;;26.30;18.90;;;;;;;20.01;49.09;100815.10;113793;1214;59828;-83
2021/11/08 11:36:22;;;;;;;26.40;17.70;;;;;;;20.02;49.14;100811.13;113835;1214;73241;-83
2021/11/08 11:39:07;;;;;;;30.80;18.70;;;;;;;20.01;48.98;100811.56;113827;1214;74639;-84
2021/11/08 11:41:42;;;;;;;30.70;18.40;;;;;;;20.00;49.05;100809.84;113802;1215;60908;-84
2021/11/08 11:44:21;;;;;;;33.50;17.90;;;;;;;19.98;49.01;100810.08;113900;1214;60235;-83
2021/11/08 11:46:53;;;;;;;29.70;17.70;;;;;;;19.98;49.16;100818.17;114000;1214;73931;-83
2021/11/08 11:49:25;;;;;;;31.80;17.00;;;;;;;19.98;49.03;100820.65;113991;1213;75549;-83
2021/11/08 11:51:55;;;;;;;34.90;17.30;;;;;;;19.98;49.29;100820.63;113820;1213;61075;-83
2021/11/08 11:54:30;;;;;;;33.20;20.00;;;;;;;19.98;49.44;100821.60;113765;1213;60359;-82
2021/11/08 11:57:23;;;;;;;39.90;22.70;;;;;;;19.94;49.55;100817.52;113896;1214;72208;-83
2021/11/08 12:00:01;;;;;;;34.70;21.90;;;;;;;19.84;49.53;100812.99;113275;1213;74691;-83
2021/11/08 12:02:28;;;;;;;36.80;23.20;;;;;;;19.76;49.64;100823.52;113602;1214;59943;-83
2021/11/08 12:04:54;;;;;;;30.50;20.50;;;;;;;19.69;49.54;100828.75;113690;1214;59174;-82
2021/11/08 12:07:23;;;;;;;32.20;20.20;;;;;;;19.65;49.71;100827.39;113891;1209;58927;-83
2021/11/08 12:09:54;;;;;;;34.00;21.00;;;;;;;19.65;49.66;100827.44;114190;1206;75220;-83
2021/11/08 12:12:40;;;;;;;40.40;23.50;;;;;;;19.63;49.76;100825.02;114325;1206;60942;-82
2021/11/08 12:15:09;;;;;;;36.60;24.10;;;;;;;19.62;49.65;100821.91;114632;1202;61038;-83
2021/11/08 12:17:40;;;;;;;36.70;23.20;;;;;;;19.59;49.64;100817.59;114640;1202;73551;-83
2021/11/08 12:20:31;;;;;;;34.60;22.30;;;;;;;19.56;49.56;100818.35;114650;1203;75283;-82
2021/11/08 12:23:00;;;;;;;32.00;19.60;;;;;;;19.55;49.73;100822.34;114962;1198;60201;-82
2021/11/08 12:25:27;;;;;;;31.30;20.20;;;;;;;19.56;49.66;100828.69;115111;1198;60119;-82
2021/11/08 12:28:04;;;;;;;36.20;25.80;;;;;;;19.56;49.67;100826.18;115045;1197;73629;-82
2021/11/08 12:30:32;;;;;;;30.50;21.00;;;;;;;19.55;49.70;100830.02;115093;1197;74394;-83
2021/11/08 12:33:00;;;;;;;34.00;21.30;;;;;;;19.54;49.73;100833.67;115103;1198;60085;-83
2021/11/08 12:35:54;;;;;;;34.30;18.50;;;;;;;19.54;49.94;100834.00;115120;1198;59957;-83
2021/11/08 12:38:40;;;;;;;43.00;26.50;;;;;;;19.55;50.01;100828.80;115160;1190;73131;-83
2021/11/08 12:41:24;;;;;;;44.30;27.60;;;;;;;19.48;49.83;100827.77;115145;1198;75221;-83
2021/11/08 12:44:07;;;;;;;;;;;;;;;;;;;;;
2021/11/08 12:46:58;;;;;;;40.30;23.20;;;;;;;19.39;49.96;100793.17;115322;1197;59732;-83
2021/11/08 12:49:58;;;;;;;38.70;25.00;;;;;;;19.39;49.89;100790.69;115110;1198;73479;-82
2021/11/08 12:52:27;;;;;;;41.80;23.80;;;;;;;19.37;49.84;100784.41;115220;1198;74715;-81
2021/11/08 12:55:20;;;;;;;44.00;25.50;;;;;;;19.37;49.98;100779.96;115010;1198;59964;-82
2021/11/08 12:58:06;;;;;;;34.40;21.80;;;;;;;19.33;49.98;100785.52;115127;1191;61030;-82
2021/11/08 13:00:51;;;;;;;40.10;23.50;;;;;;;19.31;49.99;100789.77;115021;1198;72754;-82
2021/11/08 13:03:38;;;;;;;36.00;23.10;;;;;;;19.28;50.06;100801.95;115053;1197;73324;-82
2021/11/08 13:06:31;;;;;;;33.30;21.80;;;;;;;19.26;50.09;100815.29;115177;1197;61166;-82
2021/11/08 13:09:25;;;;;;;32.30;22.00;;;;;;;19.27;50.10;100826.96;115054;1198;61319;-82
2021/11/08 13:12:11;;;;;;;40.70;23.30;;;;;;;19.29;50.20;100832.90;115001;1198;73440;-82
2021/11/08 13:15:30;;;;;;;;;;;;;;;;;;;;;
2021/11/08 13:21:07;;;;;;;31.10;19.40;;;;;;;19.30;50.18;100863.89;115315;1196;60075;-81
2021/11/08 13:23:38;;;;;;;29.90;19.50;;;;;;;19.33;50.22;100864.26;115030;1198;73367;-82
2021/11/08 13:26:06;;;;;;;33.50;20.10;;;;;;;19.35;50.16;100864.34;115346;1197;74540;-82
2021/11/08 13:29:01;;;;;;;42.10;21.50;;;;;;;19.35;50.23;100875.90;115409;1197;60082;-81
2021/11/08 13:31:50;;;;;;;30.80;20.80;;;;;;;19.35;50.14;100890.73;115355;1197;61079;-81
2021/11/08 13:34:56;;;;;;;;;;;;;;;;;;;;;
2021/11/08 13:37:35;;;;;;;29.70;19.30;;;;;;;19.34;50.22;100915.08;115423;1197;74338;-81
2021/11/08 13:41:26;;;;;;;42.20;24.00;;;;;;;19.34;50.32;100923.63;115433;1197;59511;-81
2021/11/08 13:44:22;;;;;;;28.60;19.70;;;;;;;19.33;50.39;100929.56;115204;1197;59977;-81
2021/11/08 13:47:17;;;;;;;28.80;19.20;;;;;;;19.33;50.28;100934.41;115297;1196;71473;-82
2021/11/08 13:49:50;;;;;;;33.00;22.40;;;;;;;19.33;50.39;100936.38;115159;1198;65577;-82
2021/11/08 13:52:16;;;;;;;39.50;23.00;;;;;;;19.33;50.38;100942.23;115303;1197;58890;-82
2021/11/08 13:54:47;;;;;;;28.70;19.40;;;;;;;19.33;50.31;100944.37;115173;1198;58954;-82
2021/11/08 13:57:28;;;;;;;33.00;21.00;;;;;;;19.32;50.56;100951.21;115303;1197;64646;-81
2021/11/08 13:59:54;;;;;;;27.80;20.10;;;;;;;19.30;50.37;100954.55;115246;1198;66748;-82
2021/11/08 14:02:52;;;;;;;30.00;20.30;;;;;;;19.29;50.51;100954.27;115218;1196;58853;-82
2021/11/08 14:05:32;;;;;;;;;;;;;;;;;;;;;
2021/11/08 14:08:11;;;;;;;36.60;22.40;;;;;;;19.29;50.55;100950.67;115480;1197;73389;-82
2021/11/08 14:11:06;;;;;;;;;;;;;;;19.27;50.60;100954.38;115190;1198;75153;-82
2021/11/08 14:13:59;;;;;;;32.20;20.90;;;;;;;19.25;50.73;100956.27;115399;1197;59617;-81
2021/11/08 14:16:55;;;;;;;;;;;;;;;;;;;;;
2021/11/08 14:19:21;;;;;;;27.60;17.90;;;;;;;19.29;50.53;100964.60;115395;1197;73376;-81
2021/11/08 14:22:03;;;;;;;;;;;;;;;;;;;;;
2021/11/08 14:31:42;;;;;;;25.60;17.90;;;;;;;19.33;50.75;100967.23;115364;1196;71968;-81
2021/11/08 14:34:33;;;;;;;28.40;18.60;;;;;;;19.34;50.87;100972.88;115447;1197;74441;-81
2021/11/08 14:37:28;;;;;;;30.80;18.20;;;;;;;19.35;50.92;100970.83;115190;1198;59643;-81
2021/11/08 14:40:13;;;;;;;;;;;;;;;;;;;;;
2021/11/08 14:43:30;;;;;;;;;;;;;;;;;;;;;
2021/11/08 14:46:32;;;;;;;24.50;17.00;;;;;;;19.38;50.97;100977.27;115121;1200;75708;-81
2021/11/08 14:55:37;;;;;;;26.60;16.00;;;;;;;19.40;50.97;100991.41;115241;1197;72402;-82
2021/11/08 14:58:19;;;;;;;24.80;16.30;;;;;;;19.40;51.05;101000.67;115329;1197;75553;-81
2021/11/08 15:00:56;;;;;;;23.40;15.80;;;;;;;19.41;51.02;100998.66;115315;1198;59772;-81
2021/11/08 15:03:34;;;;;;;23.90;15.60;;;;;;;19.42;51.12;101005.20;115193;1198;60035;-81
2021/11/08 15:06:57;;;;;;;;;;;;;;;;;;;;;
2021/11/08 15:09:36;;;;;;;23.50;14.10;;;;;;;19.43;51.17;101016.94;115184;1200;75392;-81
2021/11/08 15:13:31;;;;;;;25.20;14.90;;;;;;;19.44;51.17;101011.70;115242;1201;59017;-81
2021/11/08 15:19:20;;;;;;;20.50;15.40;;;;;;;19.43;51.11;101011.40;115191;1197;72244;-81
2021/11/08 15:21:53;;;;;;;23.60;15.30;;;;;;;19.44;51.37;101014.56;115263;1198;74481;-81
2021/11/08 15:25:12;;;;;;;22.80;15.50;;;;;;;19.44;51.30;101022.05;115173;1201;58790;-81
2021/11/08 15:28:56;;;;;;;20.90;14.30;;;;;;;19.44;51.30;101019.40;114890;1203;60988;-82
2021/11/08 15:31:34;;;;;;;23.50;15.50;;;;;;;19.43;51.45;101018.89;114674;1205;73249;-81
2021/11/08 15:34:44;;;;;;;;;;;;;;;;;;;;;
2021/11/08 15:38:17;;;;;;;18.00;13.60;;;;;;;19.44;51.53;101015.83;114622;1206;59979;-81
2021/11/08 15:41:11;;;;;;;22.30;14.90;;;;;;;19.43;51.61;101017.46;114483;1208;61181;-81
2021/11/08 15:43:48;;;;;;;21.90;15.90;;;;;;;19.43;51.60;101017.29;114473;1208;72364;-82
2021/11/08 15:46:36;;;;;;;20.40;14.70;;;;;;;19.44;51.79;101019.02;114488;1209;75086;-82
2021/11/08 15:49:34;;;;;;;23.00;15.90;;;;;;;19.44;51.83;101023.69;114504;1209;59985;-82
2021/11/08 15:52:44;;;;;;;;;;;;;;;;;;;;;
2021/11/08 15:55:26;;;;;;;20.70;14.10;;;;;;;19.43;51.70;101052.45;114437;1209;73432;-83
2021/11/08 15:57:53;;;;;;;20.20;15.00;;;;;;;19.43;51.79;101057.96;114478;1209;74279;-83
2021/11/08 16:00:43;;;;;;;20.90;14.60;;;;;;;19.44;51.71;101052.06;114513;1208;60141;-83
2021/11/08 16:03:49;;;;;;;22.50;14.00;;;;;;;19.44;51.88;101058.30;114616;1206;60066;-82
2021/11/08 16:06:14;;;;;;;19.70;13.90;;;;;;;19.43;51.91;101076.88;114801;1205;73527;-82